Welcome to our Virtual Airline
Sign-in:

Flight MFC6852

  • Submitted By: Georg Werderitsch
  • Departure Airport: Point Baker SPB (KPB)
  • Arrival Airport: Cape Pole SPB (Z71)
  • Aircraft: DHC2 BEAVERA (N003MM_AM)
  • Flight Time: 00.14.07
  • Date Submitted: 2019/01/21
  • Route: FOLLOW THE TOUR FP
  • Status: Accepted
Flight Details
Gross Revenue:
(5 load / $ 0.00 per unit
$ 0.00
Fuel Cost:
(17.2365 fuel used @ 0 / unit)
$ 0.00

Additional Log Information:

View Log

FS[14:41] ----- Flight Opened -----
FS[14:41] Cigar Box - 1.1.4.0
FS[14:41] FS: FSX
FS[14:41] FSUIPC: v4,973
FS[14:41] Flight Number: MFC6852
FS[14:41] FS Aircraft: DHC-2A N299EE
FS[14:41] FS Model: DHC2
FS[14:41] FS Type: DeHavilland
FS[14:41] Departure: KPB
FS[14:41] Arrival: Z71
FS[14:41] Flight Level: 1500
FS[14:41] Flight Type: H
FS[14:41] Passengers: 5
FS[14:41] FOB: 214 lbs
FS[14:41] Gate: n/a
FS[14:41] NOTE: Parking Brake Ignored
FS[14:41] Engines: 1 Piston
FS[14:41] NOTE: Boarding has started
FS[14:41] Landing Gear: Retracted
FS[14:41] Light Data: Navigation ON
FS[14:41] Light Data: Beacon ON
FS[14:41] Main Door Closed
FS[14:41] COM1: 128.30
FS[14:41] COM2: 127.80
FS[14:41] Transponder: 1200
FS[14:41] NAV1: 113.70
FS[14:41] NAV2: 110.60
FS[14:41] ADF1: 284.0
FS[14:41] ADF2: 240.0
FS[14:41] Navigation Mode: NAV
FS[14:41] Engine 1: Started
FS[14:42] NOTE: Taxi started
FS[14:42] Flaps: Position 2
FS[14:42] NOTE: ----- TAKE OFF -----
FS[14:42] GS: 52 knots
FS[14:42] TAS: 55 knots
FS[14:42] IAS: 56 knots
FS[14:42] VS: 46 fpm
FS[14:42] FOB: 213 lbs
FS[14:42] Heading: 268°
FS[14:42] Pitch: 3°
FS[14:42] Bank: 4°
FS[14:42] Aircraft Weight: 3983,40 lbs
FS[14:42] Nearest Airport: KPB
FS[14:42] Distance: 0,36 miles
FS[14:42] Runway: ???
FS[14:42] Ground Surface: Water
FS[14:42] Ground Condition: Snow
FS[14:42] NOTE: Weather Report
FS[14:42] Wind Heading: 337°
FS[14:42] Wind Speed: 10 knots
FS[14:42] OAT: 12° C
FS[14:42] TAT: 12° C
FS[14:42] Precipitation: None
FS[14:42] Dew Point: 2° C
FS[14:42] Visibility: 62 miles
FS[14:42] METAR: KPBF 211353Z AUTO 08007KT 10SM CLR M02/M04 A3040 RMK AO2 SLP295 T10221044KPBG 211353Z AUTO 31007KT 3SM -SN BKN038 OVC048 M21/M26 A2993 RMK AO2 SLP142 P0000 T12111261KPBH 211355Z AUTO 00000KT 10SM CLR M27/M30 A3039 RMK AO2 T12671296KPBI 211353Z 31008KT 10SM CLR 08/04 A3025 RMK AO2 SLP241 T00830044 $KPBX 211355Z AUTO 05003KT 10SM CLR M14/M19 A3045 RMK AO2 T11401186
FS[14:42] NOTE: Climb started
FS[14:42] Flaps: Position 0
FS[14:42] GS: 69 knots
FS[14:42] TAS: 68 knots
FS[14:42] IAS: 69 knots
FS[14:42] VS: 648 fpm
FS[14:43] View Mode: Virtual Cockpit
FS[14:43] Landing Gear: Extended
FS[14:43] GS: 101 knots
FS[14:43] TAS: 94 knots
FS[14:43] IAS: 95 knots
FS[14:43] VS: 261 fpm
FS[14:43] AGL: 318 ft
FS[14:43] AMSL: 318 ft
FS[14:43] Landing Gear: Retracted
FS[14:43] GS: 134 knots
FS[14:43] TAS: 119 knots
FS[14:43] IAS: 120 knots
FS[14:43] VS: 616 fpm
FS[14:43] AGL: 318 ft
FS[14:43] AMSL: 318 ft
FS[14:44] NOTE: TOC reached
FS[14:44] NOTE: Cruise started
FS[14:44] GS: 134 knots
FS[14:44] TAS: 125 knots
FS[14:44] IAS: 125 knots
FS[14:44] VS: 191 fpm
FS[14:44] FOB: 204 lbs
FS[14:44] Heading: 161°
FS[14:44] Pitch: 0°
FS[14:44] Bank: 1°
FS[14:44] Aircraft Weight: 3974,94 lbs
FS[14:48] NOTE: TOD reached
FS[14:48] NOTE: Descent started
FS[14:48] GS: 143 knots
FS[14:48] TAS: 132 knots
FS[14:48] IAS: 132 knots
FS[14:48] VS: -883 fpm
FS[14:48] FOB: 189 lbs
FS[14:48] Heading: 184°
FS[14:48] Pitch: 3°
FS[14:48] Bank: 0°
FS[14:48] Aircraft Weight: 3959,74 lbs
FS[14:48] NOTE: On approach
FS[14:52] Flaps: Position 3
FS[14:52] GS: 110 knots
FS[14:52] TAS: 102 knots
FS[14:52] IAS: 103 knots
FS[14:52] VS: -64 fpm
FS[14:52] Flaps: Position 1
FS[14:52] GS: 106 knots
FS[14:52] TAS: 97 knots
FS[14:52] IAS: 98 knots
FS[14:52] VS: -79 fpm
FS[14:52] Flaps: Position 2
FS[14:52] GS: 103 knots
FS[14:52] TAS: 94 knots
FS[14:52] IAS: 95 knots
FS[14:52] VS: 67 fpm
FS[14:54] NOTE: ----- LANDED -----
FS[14:54] Landing Rate: -109,96 fpm
FS[14:54] GS: 77 knots
FS[14:54] TAS: 68 knots
FS[14:54] IAS: 69 knots
FS[14:54] VS: -106 fpm
FS[14:54] FOB: 177 lbs
FS[14:54] Heading: 162°
FS[14:54] Pitch: 1°
FS[14:54] Bank: -1°
FS[14:54] Aircraft Weight: 3947,61 lbs
FS[14:54] Nearest Airport: Z71
FS[14:54] Distance: 0,13 miles
FS[14:54] Runway: ???
FS[14:54] Ground Surface: Water
FS[14:54] Ground Condition: Snow
FS[14:54] NOTE: Weather Report
FS[14:54] Wind Heading: 337°
FS[14:54] Wind Speed: 10 knots
FS[14:54] OAT: 12° C
FS[14:54] TAT: 12° C
FS[14:54] Precipitation: None
FS[14:54] Dew Point: 4° C
FS[14:54] Visibility: 62 miles
FS[14:54] METAR: No METAR available for Z71.
FS[14:54] View Mode: Virtual Cockpit
FS[14:54] Flaps: Position 1
FS[14:54] GS: 71 knots
FS[14:54] TAS: 63 knots
FS[14:54] IAS: 64 knots
FS[14:54] VS: -31 fpm
FS[14:54] Flaps: Position 0
FS[14:54] NOTE: Taxi started
FS[14:55] Engine 1: Stopped
FS[14:55] Gate: n/a
FS[14:55] NOTE: Flight Completed
FS[14:55] FS Aircraft: DHC-2A N299EE
FS[14:55] FS Model: DHC2
FS[14:55] FS Type: DeHavilland
FS[14:55] FOB: 177 lbs
FS[14:55] Fuel Used: 38 lbs
FS[14:55] Flight Time: 00:14:07
FS[14:55] Flight Time (Dawn): 00:00:00
FS[14:55] Flight Time (Day): 00:14:07
FS[14:55] Flight Time (Dusk): 00:00:00
FS[14:55] Flight Time (Night): 00:00:00
FS[14:55] Total Landings: 1
FS[14:55] MaxSim Rate: 0x
FS[14:55] Cigar Box - 1.1.4.0
FS[14:55] ----- Flight Closed -----

Route Map